createdAt,value
2023-03-06T00:00:52.087Z,3.37
2023-03-06T00:03:20.130Z,3.67
2023-03-06T00:05:49.033Z,3.30
2023-03-06T00:08:17.024Z,3.80
2023-03-06T00:10:44.839Z,3.67
2023-03-06T00:13:15.079Z,3.77
2023-03-06T00:15:43.048Z,4.07
2023-03-06T00:18:12.136Z,5.13
2023-03-06T00:20:41.411Z,3.67
2023-03-06T00:23:09.351Z,5.60
2023-03-06T00:25:38.743Z,6.83
2023-03-06T00:28:07.225Z,6.50
2023-03-06T00:30:35.134Z,5.67
2023-03-06T00:33:03.056Z,5.73
2023-03-06T00:35:32.152Z,7.50
2023-03-06T00:38:00.006Z,6.77
2023-03-06T00:40:27.869Z,8.07
2023-03-06T00:42:55.584Z,8.57
2023-03-06T00:45:23.404Z,9.33
2023-03-06T00:47:51.183Z,7.43
2023-03-06T00:50:18.984Z,7.00
2023-03-06T00:52:48.118Z,8.80
2023-03-06T00:55:15.961Z,8.10
2023-03-06T00:57:43.716Z,8.83
2023-03-06T01:00:13.216Z,8.90
2023-03-06T01:02:41.574Z,8.70
2023-03-06T01:05:10.793Z,7.57
2023-03-06T01:07:38.558Z,7.63
2023-03-06T01:10:09.215Z,9.13
2023-03-06T01:12:37.037Z,11.67
2023-03-06T01:15:06.037Z,10.83
2023-03-06T01:17:33.848Z,11.20
2023-03-06T01:20:01.729Z,11.83
2023-03-06T01:22:29.619Z,10.60
2023-03-06T01:24:57.358Z,10.20
2023-03-06T01:27:26.516Z,8.63
2023-03-06T01:29:54.225Z,9.27
2023-03-06T01:32:22.449Z,12.13
2023-03-06T01:34:50.318Z,10.73
2023-03-06T01:37:18.081Z,11.17
2023-03-06T01:39:45.812Z,11.27
2023-03-06T01:42:13.715Z,11.33
2023-03-06T01:45:01.733Z,9.73
2023-03-06T01:47:29.921Z,8.20
2023-03-06T01:49:59.870Z,9.53
2023-03-06T01:52:31.967Z,10.90
2023-03-06T01:55:03.244Z,9.87
2023-03-06T01:57:34.010Z,9.57
2023-03-06T02:00:06.449Z,8.63
2023-03-06T02:02:34.292Z,8.80
2023-03-06T02:05:05.290Z,7.97
2023-03-06T02:07:33.710Z,7.97
2023-03-06T02:10:01.664Z,9.37
2023-03-06T02:12:29.761Z,9.37
2023-03-06T02:14:57.873Z,9.50
2023-03-06T02:17:27.888Z,9.40
2023-03-06T02:20:02.809Z,10.23
2023-03-06T02:22:37.099Z,8.70
2023-03-06T02:25:10.357Z,8.17
2023-03-06T02:27:39.700Z,8.00
2023-03-06T02:30:08.961Z,9.97
2023-03-06T02:32:36.786Z,9.40
2023-03-06T02:35:04.785Z,10.87
2023-03-06T02:37:32.516Z,10.17
2023-03-06T02:40:06.166Z,9.70
2023-03-06T02:42:33.927Z,7.90
2023-03-06T02:45:04.853Z,7.67
2023-03-06T02:47:33.136Z,9.40
2023-03-06T02:50:00.874Z,9.83
2023-03-06T02:52:28.591Z,10.30
2023-03-06T02:54:56.287Z,9.50
2023-03-06T02:57:24.015Z,9.67
2023-03-06T02:59:51.746Z,7.67
2023-03-06T03:02:20.805Z,7.93
2023-03-06T03:04:48.583Z,8.03
2023-03-06T03:07:16.326Z,7.83
2023-03-06T03:09:44.203Z,7.20
2023-03-06T03:12:12.048Z,9.17
2023-03-06T03:14:39.767Z,8.30
2023-03-06T03:17:07.551Z,9.03
2023-03-06T03:19:36.596Z,7.30
2023-03-06T03:22:04.544Z,6.57
2023-03-06T03:24:32.282Z,6.53
2023-03-06T03:27:00.219Z,6.10
2023-03-06T03:29:28.020Z,7.67
2023-03-06T03:31:55.830Z,7.20
2023-03-06T03:34:23.579Z,6.70
2023-03-06T03:36:52.627Z,6.97
2023-03-06T03:39:20.791Z,6.17
2023-03-06T03:41:48.898Z,5.67
2023-03-06T03:44:16.708Z,5.10
2023-03-06T03:46:44.455Z,5.33
2023-03-06T03:49:12.274Z,4.97
2023-03-06T03:51:40.069Z,5.00
2023-03-06T03:54:09.139Z,5.07
2023-03-06T03:56:37.007Z,4.33
2023-03-06T03:59:04.710Z,4.50
2023-03-06T04:01:32.517Z,4.60
2023-03-06T04:04:00.271Z,3.83
2023-03-06T04:06:28.329Z,4.67
2023-03-06T04:08:56.455Z,4.47
2023-03-06T04:11:25.506Z,4.10
2023-03-06T04:13:53.247Z,4.30
2023-03-06T04:16:21.613Z,4.50
2023-03-06T04:18:49.334Z,5.13
2023-03-06T04:21:17.029Z,4.70
2023-03-06T04:23:44.751Z,4.17
2023-03-06T04:26:12.483Z,4.73
2023-03-06T04:28:41.754Z,4.80
2023-03-06T04:31:09.541Z,4.77
2023-03-06T04:33:37.279Z,4.30
2023-03-06T04:36:05.733Z,4.53
2023-03-06T04:38:33.539Z,4.90
2023-03-06T04:41:01.265Z,4.43
2023-03-06T04:43:29.203Z,4.30
2023-03-06T04:45:59.075Z,4.90
2023-03-06T04:48:26.784Z,5.03
2023-03-06T04:50:54.470Z,4.80
2023-03-06T04:53:22.209Z,5.13
2023-03-06T04:55:49.922Z,5.03
2023-03-06T04:58:17.734Z,5.30
2023-03-06T05:00:45.689Z,6.07
2023-03-06T05:03:15.334Z,5.03
2023-03-06T05:05:43.633Z,5.47
2023-03-06T05:08:15.205Z,5.40
2023-03-06T05:10:43.195Z,5.53
2023-03-06T05:13:11.627Z,5.00
2023-03-06T05:15:42.011Z,5.27
2023-03-06T05:18:09.859Z,5.50
2023-03-06T05:20:38.983Z,6.00
2023-03-06T05:23:06.737Z,5.70
2023-03-06T05:25:34.438Z,5.83
2023-03-06T05:28:02.153Z,6.20
2023-03-06T05:30:29.864Z,5.67
2023-03-06T05:32:57.657Z,6.23
2023-03-06T05:35:25.445Z,6.27
2023-03-06T05:37:54.532Z,7.07
2023-03-06T05:40:22.422Z,7.13
2023-03-06T05:42:50.204Z,7.40
2023-03-06T05:45:18.031Z,6.77
2023-03-06T05:47:46.243Z,6.23
2023-03-06T05:50:14.868Z,5.67
2023-03-06T05:52:42.635Z,5.53
2023-03-06T05:55:13.681Z,4.30
2023-03-06T05:57:41.382Z,4.73
2023-03-06T06:00:11.525Z,4.90
2023-03-06T06:02:39.276Z,4.60
2023-03-06T06:05:08.026Z,4.27
2023-03-06T06:07:35.749Z,3.77
2023-03-06T06:10:04.242Z,3.10
2023-03-06T06:12:33.859Z,2.83
2023-03-06T06:15:01.623Z,2.53
2023-03-06T06:17:29.455Z,2.30
2023-03-06T06:19:57.181Z,2.20
2023-03-06T06:22:24.888Z,2.10
2023-03-06T06:24:52.668Z,2.20
2023-03-06T06:27:20.513Z,2.33
2023-03-06T06:29:53.201Z,2.10
2023-03-06T06:32:21.024Z,2.00
2023-03-06T06:34:48.839Z,1.97
2023-03-06T06:37:17.557Z,1.83
2023-03-06T06:39:45.304Z,1.80
2023-03-06T06:42:30.498Z,2.00
2023-03-06T06:45:02.144Z,1.70
2023-03-06T06:47:30.124Z,1.37
2023-03-06T06:49:58.378Z,1.50
2023-03-06T06:52:26.674Z,1.57
2023-03-06T06:54:54.670Z,2.03
2023-03-06T06:57:22.744Z,1.60
2023-03-06T06:59:52.593Z,2.00
2023-03-06T07:02:23.678Z,1.60
2023-03-06T07:05:06.946Z,1.77
2023-03-06T07:07:36.467Z,1.87
2023-03-06T07:10:06.430Z,1.70
2023-03-06T07:12:35.117Z,1.87
2023-03-06T07:15:03.411Z,1.70
2023-03-06T07:17:32.599Z,1.60
2023-03-06T07:20:00.530Z,1.50
2023-03-06T07:22:31.947Z,1.50
2023-03-06T07:25:01.831Z,1.50
2023-03-06T07:27:29.556Z,1.60
2023-03-06T07:29:57.328Z,1.70
2023-03-06T07:32:25.564Z,1.67
2023-03-06T07:35:06.158Z,1.57
2023-03-06T07:37:42.406Z,1.73
2023-03-06T07:40:12.263Z,1.67
2023-03-06T07:42:40.015Z,1.60
2023-03-06T07:45:09.089Z,1.80
2023-03-06T07:47:36.892Z,2.00
2023-03-06T07:50:07.287Z,1.90
2023-03-06T07:52:35.152Z,1.83
2023-03-06T07:55:03.164Z,1.90
2023-03-06T07:57:30.887Z,2.23
2023-03-06T07:59:58.587Z,1.90
2023-03-06T08:02:26.351Z,1.90
2023-03-06T08:04:55.109Z,2.00
2023-03-06T08:07:24.910Z,1.70
2023-03-06T08:09:52.690Z,1.80
2023-03-06T08:12:20.391Z,1.70
2023-03-06T08:14:48.100Z,1.70
2023-03-06T08:17:15.961Z,2.00
2023-03-06T08:19:43.662Z,1.40
2023-03-06T08:22:13.900Z,1.80
2023-03-06T08:24:43.095Z,1.70
2023-03-06T08:27:10.810Z,1.90
2023-03-06T08:29:38.567Z,1.80
2023-03-06T08:32:07.106Z,1.90
2023-03-06T08:34:34.889Z,1.60
2023-03-06T08:37:02.571Z,2.10
2023-03-06T08:39:30.270Z,2.03
2023-03-06T08:41:59.310Z,2.40
2023-03-06T08:44:26.999Z,2.90
2023-03-06T08:46:54.696Z,3.80
2023-03-06T08:49:22.773Z,2.67
2023-03-06T08:51:50.530Z,2.63
2023-03-06T08:54:18.483Z,3.30
2023-03-06T08:56:46.253Z,3.80
2023-03-06T08:59:15.344Z,3.60
2023-03-06T09:01:43.208Z,2.00
2023-03-06T09:04:12.065Z,1.60
2023-03-06T09:06:41.793Z,1.60
2023-03-06T09:09:10.486Z,0.97
2023-03-06T09:11:38.658Z,1.50
2023-03-06T09:14:07.120Z,1.20
2023-03-06T09:16:36.183Z,1.23
2023-03-06T09:19:04.183Z,2.00
2023-03-06T09:21:32.054Z,2.33
2023-03-06T09:24:00.355Z,1.97
2023-03-06T09:26:43.496Z,2.00
2023-03-06T09:29:12.813Z,2.73
2023-03-06T09:31:41.904Z,2.50
2023-03-06T09:34:09.645Z,1.90
2023-03-06T09:36:53.439Z,1.97
2023-03-06T09:39:23.958Z,1.97
2023-03-06T09:41:52.498Z,2.33
2023-03-06T09:44:23.611Z,2.10
2023-03-06T09:47:08.728Z,2.20
2023-03-06T09:49:47.652Z,2.13
2023-03-06T09:52:28.260Z,1.87
2023-03-06T09:54:58.182Z,2.23
2023-03-06T09:57:28.812Z,2.17
2023-03-06T10:00:02.048Z,3.57
2023-03-06T10:02:38.657Z,2.60
2023-03-06T10:05:11.711Z,3.10
2023-03-06T10:07:46.517Z,7.43
2023-03-06T10:10:20.347Z,7.93
2023-03-06T10:12:54.650Z,3.13
2023-03-06T10:15:26.446Z,2.23
2023-03-06T10:17:56.760Z,2.47
2023-03-06T10:20:27.363Z,2.70
2023-03-06T10:23:11.815Z,2.40
2023-03-06T10:25:47.366Z,3.10
2023-03-06T10:28:17.952Z,2.80
2023-03-06T10:30:53.629Z,2.70
2023-03-06T10:33:36.418Z,2.70
2023-03-06T10:36:04.639Z,2.57
2023-03-06T10:38:37.492Z,3.60
2023-03-06T10:41:09.439Z,2.20
2023-03-06T10:43:39.809Z,2.30
2023-03-06T10:46:09.062Z,2.23
2023-03-06T10:48:41.677Z,3.60
2023-03-06T10:51:19.126Z,2.70
2023-03-06T10:53:53.199Z,2.83
2023-03-06T10:56:29.630Z,3.00
2023-03-06T10:59:09.220Z,3.23
2023-03-06T11:01:37.121Z,2.90
2023-03-06T11:04:28.263Z,3.20
2023-03-06T11:07:15.250Z,3.10
2023-03-06T11:09:44.194Z,2.57
2023-03-06T11:12:22.179Z,2.43
2023-03-06T11:15:09.618Z,2.67
2023-03-06T11:17:39.111Z,1.80
2023-03-06T11:20:23.284Z,1.73
2023-03-06T11:22:55.338Z,1.50
2023-03-06T11:25:25.700Z,1.80
2023-03-06T11:27:57.618Z,1.50
2023-03-06T11:30:31.206Z,1.77
2023-03-06T11:33:02.155Z,1.60
2023-03-06T11:35:35.868Z,1.50
2023-03-06T11:38:08.010Z,1.70
2023-03-06T11:40:43.680Z,1.73
2023-03-06T11:43:21.566Z,1.60
2023-03-06T11:45:57.806Z,1.90
2023-03-06T11:48:29.305Z,1.37
2023-03-06T11:51:06.412Z,1.40
2023-03-06T11:53:37.565Z,1.50
2023-03-06T11:56:26.951Z,1.67
2023-03-06T11:59:27.025Z,1.80
2023-03-06T12:02:02.731Z,2.33
2023-03-06T12:04:42.993Z,2.53
2023-03-06T12:07:29.919Z,1.30
2023-03-06T12:10:09.339Z,0.83
2023-03-06T12:13:07.546Z,1.00
2023-03-06T12:15:48.201Z,1.50
2023-03-06T12:18:38.609Z,1.20
2023-03-06T12:21:11.582Z,1.27
2023-03-06T12:24:12.728Z,1.07
2023-03-06T12:26:51.945Z,1.37
2023-03-06T12:29:31.710Z,1.97
2023-03-06T12:32:15.100Z,1.80
2023-03-06T12:34:59.770Z,1.60
2023-03-06T12:37:36.406Z,1.90
2023-03-06T12:40:36.855Z,2.83
2023-03-06T12:43:30.692Z,2.30
2023-03-06T12:46:03.744Z,3.57
2023-03-06T12:48:35.904Z,6.60
2023-03-06T12:51:06.268Z,3.87
2023-03-06T12:53:35.603Z,5.17
2023-03-06T12:56:04.094Z,5.17
2023-03-06T12:58:45.600Z,2.20
2023-03-06T13:01:19.908Z,2.00
2023-03-06T13:04:04.943Z,2.50
2023-03-06T13:06:50.868Z,2.77
2023-03-06T13:09:34.219Z,2.07
2023-03-06T13:12:27.221Z,3.57
2023-03-06T13:14:58.646Z,2.20
2023-03-06T13:17:34.351Z,6.30
2023-03-06T13:20:35.587Z,5.03
2023-03-06T13:23:43.446Z,5.07
2023-03-06T13:26:12.574Z,3.10
2023-03-06T13:28:44.967Z,8.10
2023-03-06T13:31:26.461Z,2.63
2023-03-06T13:33:57.966Z,3.00
2023-03-06T13:36:30.993Z,2.93
2023-03-06T13:39:09.552Z,5.80
2023-03-06T13:41:42.486Z,4.40
2023-03-06T13:44:47.318Z,5.93
2023-03-06T13:47:34.507Z,6.13
2023-03-06T13:50:18.182Z,3.17
2023-03-06T13:52:57.059Z,5.43
2023-03-06T13:55:35.395Z,3.23
2023-03-06T13:58:14.892Z,3.27
2023-03-06T14:01:13.976Z,2.70
2023-03-06T14:03:59.951Z,14.67
2023-03-06T14:06:52.673Z,22.37
2023-03-06T14:09:29.032Z,2.80
2023-03-06T14:12:01.570Z,2.20
2023-03-06T14:14:37.032Z,1.53
2023-03-06T14:17:06.389Z,3.90
2023-03-06T14:19:39.816Z,1.80
2023-03-06T14:22:14.829Z,13.57
2023-03-06T14:24:52.573Z,4.20
2023-03-06T14:27:20.569Z,41.70
2023-03-06T14:29:48.779Z,9.70
2023-03-06T14:32:18.874Z,22.93
2023-03-06T14:34:49.076Z,3.23
2023-03-06T14:37:21.889Z,14.67
2023-03-06T14:39:50.416Z,1.40
2023-03-06T14:42:20.586Z,1.13
2023-03-06T14:44:49.556Z,1.53
2023-03-06T14:47:23.761Z,1.67
2023-03-06T14:50:21.630Z,11.47
2023-03-06T14:52:50.336Z,1.23
2023-03-06T14:55:20.342Z,4.73
2023-03-06T14:57:52.105Z,3.60
2023-03-06T15:00:22.848Z,1.20
2023-03-06T15:02:53.508Z,4.03
2023-03-06T15:05:25.967Z,1.60
2023-03-06T15:07:56.293Z,1.87
2023-03-06T15:10:26.237Z,1.70
2023-03-06T15:12:54.531Z,1.70
2023-03-06T15:15:29.312Z,3.60
2023-03-06T15:17:57.068Z,1.40
2023-03-06T15:20:56.916Z,1.47
2023-03-06T15:23:27.581Z,1.20
2023-03-06T15:25:57.725Z,1.50
2023-03-06T15:28:35.201Z,1.50
2023-03-06T15:31:06.069Z,1.60
2023-03-06T15:33:33.934Z,1.60
2023-03-06T15:36:05.173Z,1.90
2023-03-06T15:38:36.741Z,1.67
2023-03-06T15:41:06.971Z,3.67
2023-03-06T15:43:38.127Z,1.80
2023-03-06T15:46:07.683Z,1.60
2023-03-06T15:48:36.220Z,1.70
2023-03-06T15:51:05.887Z,1.70
2023-03-06T15:53:33.731Z,2.00
2023-03-06T15:56:02.693Z,3.00
2023-03-06T15:58:32.633Z,2.50
2023-03-06T16:01:00.578Z,1.70
2023-03-06T16:03:28.339Z,1.60
2023-03-06T16:05:56.240Z,1.97
2023-03-06T16:08:25.293Z,1.47
2023-03-06T16:10:53.078Z,1.73
2023-03-06T16:13:26.579Z,1.70
2023-03-06T16:15:54.417Z,2.00
2023-03-06T16:18:22.149Z,1.60
2023-03-06T16:20:50.648Z,1.73
2023-03-06T16:23:18.327Z,1.90
2023-03-06T16:25:49.039Z,1.77
2023-03-06T16:28:17.702Z,1.70
2023-03-06T16:30:46.207Z,1.70
2023-03-06T16:33:14.925Z,2.03
2023-03-06T16:35:44.581Z,2.17
2023-03-06T16:38:12.369Z,1.90
2023-03-06T16:40:41.553Z,2.00
2023-03-06T16:43:13.493Z,1.73
2023-03-06T16:45:42.685Z,1.63
2023-03-06T16:48:16.690Z,2.30
2023-03-06T16:50:45.868Z,2.10
2023-03-06T16:53:14.123Z,2.33
2023-03-06T16:55:41.971Z,2.40
2023-03-06T16:58:11.052Z,2.80
2023-03-06T17:00:38.860Z,2.80
2023-03-06T17:03:07.751Z,2.50
2023-03-06T17:05:36.911Z,2.30
2023-03-06T17:08:05.367Z,2.20
2023-03-06T17:10:33.159Z,2.40
2023-03-06T17:13:00.897Z,2.87
2023-03-06T17:15:30.123Z,3.10
2023-03-06T17:17:58.696Z,3.30
2023-03-06T17:20:26.502Z,3.13
2023-03-06T17:22:54.294Z,3.60
2023-03-06T17:25:22.001Z,3.70
2023-03-06T17:27:49.714Z,3.20
2023-03-06T17:30:17.628Z,3.30
2023-03-06T17:32:46.728Z,3.07
2023-03-06T17:35:14.451Z,3.40
2023-03-06T17:37:42.290Z,3.73
2023-03-06T17:40:11.454Z,3.63
2023-03-06T17:42:39.222Z,3.13
2023-03-06T17:45:09.342Z,3.20
2023-03-06T17:47:37.210Z,3.53
2023-03-06T17:50:07.010Z,3.27
2023-03-06T17:52:34.916Z,3.00
2023-03-06T17:55:02.892Z,3.43
2023-03-06T17:57:30.668Z,3.60
2023-03-06T17:59:58.437Z,3.33
2023-03-06T18:02:26.349Z,3.80
2023-03-06T18:04:57.538Z,4.13
2023-03-06T18:07:26.809Z,3.90
2023-03-06T18:09:54.617Z,4.67
2023-03-06T18:12:22.390Z,4.83
2023-03-06T18:14:50.717Z,8.07
2023-03-06T18:17:18.813Z,4.90
2023-03-06T18:19:46.641Z,5.37
2023-03-06T18:22:14.473Z,4.83
2023-03-06T18:24:43.605Z,5.37
2023-03-06T18:27:11.374Z,5.10
2023-03-06T18:29:39.105Z,4.90
2023-03-06T18:32:09.200Z,5.17
2023-03-06T18:34:37.730Z,5.27
2023-03-06T18:37:05.543Z,4.70
2023-03-06T18:39:33.412Z,5.23
2023-03-06T18:42:03.123Z,4.80
2023-03-06T18:44:31.038Z,6.47
2023-03-06T18:47:02.912Z,6.20
2023-03-06T18:49:30.738Z,5.43
2023-03-06T18:51:58.542Z,5.07
2023-03-06T18:54:28.526Z,4.53
2023-03-06T18:56:56.370Z,5.97
2023-03-06T18:59:25.883Z,5.20
2023-03-06T19:01:57.677Z,4.90
2023-03-06T19:04:25.779Z,4.90
2023-03-06T19:06:54.560Z,4.80
2023-03-06T19:09:22.572Z,5.23
2023-03-06T19:11:51.812Z,4.83
2023-03-06T19:14:21.423Z,4.63
2023-03-06T19:16:50.639Z,5.17
2023-03-06T19:19:18.487Z,5.00
2023-03-06T19:21:46.259Z,4.90
2023-03-06T19:24:14.331Z,5.00
2023-03-06T19:26:42.631Z,4.83
2023-03-06T19:29:10.559Z,4.97
2023-03-06T19:31:38.323Z,4.87
2023-03-06T19:34:07.384Z,5.33
2023-03-06T19:36:35.561Z,5.07
2023-03-06T19:39:05.548Z,5.17
2023-03-06T19:41:33.343Z,5.77
2023-03-06T19:44:03.346Z,5.30
2023-03-06T19:46:31.805Z,5.90
2023-03-06T19:49:00.971Z,6.77
2023-03-06T19:51:30.652Z,6.60
2023-03-06T19:53:59.016Z,6.70
2023-03-06T19:56:29.084Z,6.87
2023-03-06T19:58:57.397Z,6.23
2023-03-06T20:01:26.790Z,6.17
2023-03-06T20:03:58.378Z,7.40
2023-03-06T20:06:30.055Z,6.07
2023-03-06T20:08:59.166Z,7.43
2023-03-06T20:11:29.844Z,7.70
2023-03-06T20:13:58.972Z,7.27
2023-03-06T20:16:28.788Z,6.87
2023-03-06T20:18:58.888Z,7.23
2023-03-06T20:21:27.398Z,7.80
2023-03-06T20:23:57.923Z,8.00
2023-03-06T20:26:28.290Z,8.40
2023-03-06T20:28:56.614Z,7.80
2023-03-06T20:31:27.008Z,8.00
2023-03-06T20:33:56.061Z,8.03
2023-03-06T20:36:27.442Z,7.63
2023-03-06T20:38:55.198Z,7.00
2023-03-06T20:41:25.460Z,6.47
2023-03-06T20:43:54.902Z,6.73
2023-03-06T20:46:23.929Z,6.73
2023-03-06T20:48:54.126Z,5.80
2023-03-06T20:51:23.293Z,6.00
2023-03-06T20:53:53.964Z,5.90
2023-03-06T20:56:24.643Z,6.40
2023-03-06T20:58:53.874Z,6.17
2023-03-06T21:01:22.944Z,5.80
2023-03-06T21:03:51.281Z,5.80
2023-03-06T21:06:19.695Z,5.30
2023-03-06T21:08:48.223Z,5.13
2023-03-06T21:11:16.426Z,6.13
2023-03-06T21:13:44.273Z,5.50
2023-03-06T21:16:15.213Z,5.23
2023-03-06T21:18:43.149Z,3.90
2023-03-06T21:21:13.045Z,4.70
2023-03-06T21:23:41.308Z,4.63
2023-03-06T21:26:12.521Z,4.40
2023-03-06T21:28:40.655Z,4.73
2023-03-06T21:31:09.908Z,4.43
2023-03-06T21:33:39.073Z,4.30
2023-03-06T21:36:07.704Z,4.77
2023-03-06T21:38:36.223Z,4.67
2023-03-06T21:41:09.214Z,4.97
2023-03-06T21:43:36.977Z,4.50
2023-03-06T21:46:04.999Z,4.40
2023-03-06T21:48:33.131Z,4.90
2023-03-06T21:51:10.213Z,4.70
2023-03-06T21:53:40.963Z,4.37
2023-03-06T21:56:09.527Z,4.50
2023-03-06T21:58:37.601Z,4.47
2023-03-06T22:01:09.752Z,4.47
2023-03-06T22:03:37.540Z,4.93
2023-03-06T22:06:11.107Z,5.17
2023-03-06T22:08:39.184Z,5.43
2023-03-06T22:11:08.268Z,4.87
2023-03-06T22:13:36.212Z,5.10
2023-03-06T22:16:04.407Z,4.77
2023-03-06T22:18:32.522Z,4.80
2023-03-06T22:21:00.221Z,4.87
2023-03-06T22:23:29.252Z,4.63
2023-03-06T22:26:02.390Z,4.57
2023-03-06T22:28:30.120Z,4.67
2023-03-06T22:31:04.103Z,4.97
2023-03-06T22:33:31.893Z,4.20
2023-03-06T22:36:06.116Z,4.50
2023-03-06T22:38:35.893Z,4.87
2023-03-06T22:41:04.781Z,4.07
2023-03-06T22:43:33.263Z,4.73
2023-03-06T22:46:02.910Z,4.37
2023-03-06T22:48:30.750Z,4.03
2023-03-06T22:51:03.009Z,4.37
2023-03-06T22:53:30.747Z,3.97
2023-03-06T22:56:00.295Z,4.20
2023-03-06T22:58:34.165Z,4.67
2023-03-06T23:01:06.074Z,4.93
2023-03-06T23:03:33.899Z,4.83
2023-03-06T23:06:01.643Z,5.10
2023-03-06T23:08:29.358Z,5.67
2023-03-06T23:10:57.051Z,5.67
2023-03-06T23:13:26.096Z,6.33
2023-03-06T23:15:53.823Z,6.80
2023-03-06T23:18:21.547Z,5.93
2023-03-06T23:20:49.359Z,5.90
2023-03-06T23:23:17.152Z,6.40
2023-03-06T23:25:45.237Z,6.50
2023-03-06T23:28:13.191Z,6.27
2023-03-06T23:30:43.081Z,7.10
2023-03-06T23:33:11.425Z,7.83
2023-03-06T23:35:39.646Z,7.33
2023-03-06T23:38:07.607Z,7.97
2023-03-06T23:40:35.553Z,7.60
2023-03-06T23:43:03.709Z,7.33
2023-03-06T23:45:31.552Z,8.30
2023-03-06T23:48:00.609Z,8.50
2023-03-06T23:50:28.317Z,8.27
2023-03-06T23:52:56.711Z,8.40
2023-03-06T23:55:24.458Z,8.23
2023-03-06T23:57:52.188Z,9.97
